TimeAKDT,TemperatureF,Dew PointF,Humidity,Sea Level PressureIn,VisibilityMPH,Wind Direction,Wind SpeedMPH,Gust SpeedMPH,PrecipitationIn,Events,Conditions,WindDirDegrees,DateUTC
12:53 AM,45.0,44.1,97,29.90,10.0,North,6.9,-,N/A,,Overcast,10,2013-05-27 08:53:00
1:53 AM,44.1,44.1,100,29.91,10.0,NE,5.8,-,0.00,Rain,Light Rain,50,2013-05-27 09:53:00
2:53 AM,45.0,44.1,97,29.90,10.0,North,5.8,-,0.01,,Overcast,10,2013-05-27 10:53:00
3:53 AM,44.1,44.1,100,29.90,10.0,Calm,Calm,-,N/A,,Partly Cloudy,0,2013-05-27 11:53:00
4:53 AM,43.0,43.0,100,29.89,10.0,Calm,Calm,-,N/A,,Clear,0,2013-05-27 12:53:00
5:53 AM,44.1,43.0,96,29.88,10.0,NNE,5.8,-,N/A,,Clear,20,2013-05-27 13:53:00
6:53 AM,45.0,43.0,93,29.89,10.0,Calm,Calm,-,N/A,,Clear,0,2013-05-27 14:53:00
7:53 AM,48.0,45.0,89,29.89,10.0,Calm,Calm,-,N/A,,Clear,0,2013-05-27 15:53:00
8:53 AM,52.0,45.0,77,29.89,10.0,Calm,Calm,-,N/A,,Clear,0,2013-05-27 16:53:00
9:53 AM,55.0,46.0,72,29.88,10.0,NW,5.8,-,N/A,,Clear,320,2013-05-27 17:53:00
10:53 AM,55.9,44.1,64,29.86,10.0,West,6.9,-,N/A,,Clear,280,2013-05-27 18:53:00
11:53 AM,61.0,44.1,54,29.84,10.0,North,12.7,16.1,N/A,,Partly Cloudy,360,2013-05-27 19:53:00
12:53 PM,63.0,42.1,46,29.83,10.0,North,15.0,21.9,N/A,,Clear,10,2013-05-27 20:53:00
1:53 PM,64.9,39.9,40,29.81,10.0,North,17.3,-,N/A,,Partly Cloudy,360,2013-05-27 21:53:00
2:53 PM,66.9,41.0,39,29.81,10.0,North,13.8,21.9,N/A,,Scattered Clouds,360,2013-05-27 22:53:00
3:53 PM,66.0,39.9,38,29.79,10.0,North,15.0,-,N/A,,Scattered Clouds,360,2013-05-27 23:53:00
4:53 PM,53.1,42.1,66,29.81,10.0,South,17.3,-,N/A,,Scattered Clouds,190,2013-05-28 00:53:00
4:56 PM,51.8,42.8,71,29.80,10.0,SSW,17.3,-,N/A,,Scattered Clouds,200,2013-05-28 00:56:00
5:53 PM,48.9,41.0,74,29.81,10.0,SSW,16.1,-,N/A,,Clear,210,2013-05-28 01:53:00
6:53 PM,46.9,41.0,80,29.81,10.0,SSW,15.0,-,N/A,,Clear,210,2013-05-28 02:53:00
7:53 PM,46.0,39.9,79,29.81,10.0,SSW,12.7,-,N/A,,Clear,210,2013-05-28 03:53:00
8:53 PM,45.0,39.9,82,29.81,10.0,SSW,11.5,-,N/A,,Clear,210,2013-05-28 04:53:00
9:53 PM,43.0,39.9,89,29.81,10.0,SSW,11.5,-,N/A,,Clear,210,2013-05-28 05:53:00
10:53 PM,42.1,39.9,92,29.81,10.0,SSW,12.7,-,N/A,,Clear,200,2013-05-28 06:53:00
11:53 PM,42.1,39.9,92,29.81,10.0,SSW,11.5,-,N/A,,Clear,200,2013-05-28 07:53:00